Time;durP1;ratioP1;P1;durP2;ratioP2;P2;SDS_P1;SDS_P2;PMS_P1;PMS_P2;Temp;Humidity;BMP_temperature;BMP_pressure;BME280_temperature;BME280_humidity;BME280_pressure;Samples;Min_cycle;Max_cycle;Signal;HPM_P1;HPM_P2
2022/09/07 00:01:50;;;;;;;7.20;1.90;;;;;;;12.53;64.64;98907.99;220363;1274;24260;-74
2022/09/07 00:08:01;;;;;;;2.10;1.30;;;;;;;12.40;64.61;98907.02;220210;1274;24342;-73
2022/09/07 00:14:11;;;;;;;2.80;1.40;;;;;;;12.32;64.76;98907.95;220597;1273;23509;-73
2022/09/07 00:20:30;;;;;;;6.70;1.50;;;;;;;12.25;64.72;98896.70;220233;1274;22616;-73
2022/09/07 00:26:21;;;;;;;5.00;1.60;;;;;;;12.14;64.81;98905.95;220385;1274;22531;-74
2022/09/07 00:37:31;;;;;;;;;;;;;;;;;;;;;
2022/09/07 00:43:02;;;;;;;5.30;1.50;;;;;;;12.01;64.97;98922.19;159687;1274;1016311;-73
2022/09/07 00:48:53;;;;;;;6.10;2.20;;;;;;;12.00;64.97;98918.86;110026;1273;1016276;-73
2022/09/07 00:55:00;;;;;;;;;;;;;;;;;;;;;
2022/09/07 01:01:30;;;;;;;3.50;1.20;;;;;;;11.97;64.60;98922.58;110011;1271;1016898;-73
2022/09/07 01:07:05;;;;;;;2.70;1.70;;;;;;;11.92;64.66;98916.98;110165;1273;1016708;-73
2022/09/07 01:12:14;;;;;;;3.50;1.40;;;;;;;11.88;64.71;98913.35;110122;1273;1016365;-74
2022/09/07 01:18:44;;;;;;;6.60;1.40;;;;;;;11.83;64.63;98908.70;110063;1273;1016829;-73
2022/09/07 01:24:59;;;;;;;3.10;1.50;;;;;;;11.78;64.47;98903.03;109906;1273;1020064;-73
2022/09/07 01:30:45;;;;;;;;;;;;;;;;;;;;;
2022/09/07 01:37:16;;;;;;;2.60;1.20;;;;;;;11.65;64.48;98900.50;110126;1273;1016860;-73
2022/09/07 01:43:48;;;;;;;2.20;1.30;;;;;;;11.60;64.66;98893.02;155139;1274;5415965;-73
2022/09/07 01:49:26;;;;;;;2.30;1.20;;;;;;;11.54;64.73;98882.53;220561;1273;22541;-73
2022/09/07 01:54:46;;;;;;;4.90;1.60;;;;;;;11.44;64.54;98883.33;220240;1274;22592;-74
2022/09/07 02:00:49;;;;;;;4.50;1.50;;;;;;;11.36;64.52;98887.30;219933;1273;1002488;-73
2022/09/07 02:07:33;;;;;;;;;;;;;;;;;;;;;
2022/09/07 02:13:43;;;;;;;2.80;1.30;;;;;;;11.18;65.18;98881.44;194563;1273;1016116;-73
2022/09/07 02:19:36;;;;;;;3.40;1.20;;;;;;;11.10;65.25;98878.90;220375;1273;25493;-73
2022/09/07 02:25:53;;;;;;;3.40;1.20;;;;;;;11.03;65.55;98873.65;220652;1273;25257;-73
2022/09/07 02:38:33;;;;;;;2.40;1.80;;;;;;;10.82;65.77;98864.65;220729;1273;22546;-74
2022/09/07 02:44:46;;;;;;;3.10;1.90;;;;;;;10.76;66.12;98866.77;175637;1273;1003908;-73
2022/09/07 02:51:39;;;;;;;3.40;1.70;;;;;;;10.67;66.36;98867.23;220301;1273;22533;-73
2022/09/07 02:58:48;;;;;;;4.00;1.60;;;;;;;10.62;66.55;98861.09;220589;1273;22569;-74
2022/09/07 03:05:19;;;;;;;4.90;1.40;;;;;;;10.55;66.56;98846.05;220673;1273;22558;-73
2022/09/07 03:11:41;;;;;;;4.80;2.00;;;;;;;10.53;66.74;98840.08;220567;1273;22534;-74
2022/09/07 03:17:34;;;;;;;8.10;2.30;;;;;;;10.45;66.79;98838.04;216389;1273;1003948;-73
2022/09/07 03:23:32;;;;;;;5.80;2.40;;;;;;;10.37;66.85;98836.20;216857;1273;1003808;-73
2022/09/07 03:29:00;;;;;;;6.80;2.10;;;;;;;10.26;67.05;98842.18;220346;1273;22557;-73
2022/09/07 03:34:39;;;;;;;3.80;2.10;;;;;;;10.20;67.14;98857.55;220463;1274;22864;-73
2022/09/07 03:46:22;;;;;;;7.20;1.60;;;;;;;10.09;67.70;98862.20;220560;1273;25331;-73
2022/09/07 03:58:26;;;;;;;3.90;1.80;;;;;;;10.05;68.13;98868.19;220543;1273;22585;-73
2022/09/07 04:03:47;;;;;;;4.70;1.60;;;;;;;10.02;68.13;98874.27;220652;1273;26393;-73
2022/09/07 04:09:05;;;;;;;5.30;1.60;;;;;;;9.98;68.41;98874.84;220898;1273;23823;-74
2022/09/07 04:14:20;;;;;;;3.00;1.70;;;;;;;9.97;68.58;98883.36;211436;1274;1005044;-75
2022/09/07 04:19:38;;;;;;;3.80;1.80;;;;;;;9.99;68.83;98881.30;110053;1273;1019467;-73
2022/09/07 04:25:20;;;;;;;4.90;1.80;;;;;;;10.03;68.82;98882.98;110000;1273;1016603;-73
2022/09/07 04:31:16;;;;;;;10.70;2.10;;;;;;;10.09;68.92;98870.83;110179;1273;1018483;-74
2022/09/07 04:37:03;;;;;;;4.70;1.50;;;;;;;10.14;68.80;98878.96;154011;1274;1016202;-75
2022/09/07 04:42:16;;;;;;;5.30;1.70;;;;;;;10.19;68.98;98874.05;220365;1274;25379;-73
2022/09/07 04:47:59;;;;;;;3.90;2.00;;;;;;;10.25;68.94;98867.45;220251;1274;25423;-73
2022/09/07 04:53:16;;;;;;;2.40;1.40;;;;;;;10.32;68.96;98863.91;220505;1273;23243;-74
2022/09/07 04:58:47;;;;;;;4.50;1.50;;;;;;;10.39;68.89;98864.45;220560;1273;22699;-73
2022/09/07 05:04:10;;;;;;;4.30;1.80;;;;;;;10.50;68.80;98856.52;190758;1273;1015270;-73
2022/09/07 05:09:45;;;;;;;3.90;1.80;;;;;;;10.62;68.81;98860.39;184420;1273;1016748;-74
2022/09/07 05:15:40;;;;;;;6.10;1.90;;;;;;;10.77;68.41;98861.27;220726;1273;25312;-73
2022/09/07 05:21:36;;;;;;;5.60;1.90;;;;;;;10.90;68.21;98872.21;220759;1273;22554;-72
2022/09/07 05:27:10;;;;;;;3.50;2.10;;;;;;;11.00;67.82;98873.95;220260;1274;25349;-74
2022/09/07 05:32:49;;;;;;;2.50;1.40;;;;;;;11.12;67.76;98873.86;220421;1274;22606;-73
2022/09/07 05:38:27;;;;;;;8.20;2.30;;;;;;;11.19;67.83;98865.01;218949;1273;1016393;-72
2022/09/07 05:43:50;;;;;;;3.40;1.70;;;;;;;11.22;67.39;98857.73;220303;1274;22687;-73
2022/09/07 05:49:21;;;;;;;2.50;1.80;;;;;;;11.29;67.33;98846.20;220509;1273;22708;-73
2022/09/07 05:54:39;;;;;;;4.70;2.40;;;;;;;11.38;67.33;98841.45;220771;1274;22532;-73
2022/09/07 06:00:16;;;;;;;4.10;1.70;;;;;;;11.54;67.32;98845.29;220975;1273;22541;-72
2022/09/07 06:05:43;;;;;;;5.60;2.20;;;;;;;11.71;67.32;98849.15;220809;1273;22532;-73
2022/09/07 06:10:58;;;;;;;3.70;1.90;;;;;;;11.88;67.19;98855.80;221357;1273;22569;-72
2022/09/07 06:16:03;;;;;;;3.80;2.10;;;;;;;12.06;67.01;98853.64;220895;1273;24920;-73
2022/09/07 06:21:18;;;;;;;5.00;2.70;;;;;;;12.21;66.84;98847.56;226808;1272;22467;-73
2022/09/07 06:26:34;;;;;;;3.30;1.70;;;;;;;12.40;66.66;98844.03;226558;1273;22274;-72
2022/09/07 06:31:46;;;;;;;4.10;2.40;;;;;;;12.63;66.60;98842.20;226620;1273;22488;-73
2022/09/07 06:37:09;;;;;;;5.70;3.00;;;;;;;12.86;66.44;98845.64;203213;1271;1003969;-73
2022/09/07 06:42:17;;;;;;;4.10;2.60;;;;;;;13.05;66.26;98841.09;178795;1273;1016312;-75
2022/09/07 06:47:29;;;;;;;9.80;3.60;;;;;;;13.30;66.08;98842.63;226173;1274;22382;-72
2022/09/07 06:52:36;;;;;;;5.70;3.00;;;;;;;13.58;65.92;98836.21;226329;1273;22384;-73
2022/09/07 06:57:58;;;;;;;8.40;2.90;;;;;;;13.81;65.54;98828.45;226544;1273;22306;-73
2022/09/07 07:03:00;;;;;;;8.00;3.90;;;;;;;14.02;65.39;98827.27;225123;1272;2002159;-74
2022/09/07 07:08:18;;;;;;;5.90;3.00;;;;;;;14.25;65.02;98840.20;226384;1273;23514;-74
2022/09/07 07:13:22;;;;;;;12.70;3.50;;;;;;;14.41;64.61;98842.59;226507;1272;22323;-73
2022/09/07 07:18:32;;;;;;;6.00;3.00;;;;;;;14.56;64.49;98848.39;225747;1273;24140;-72
2022/09/07 07:23:38;;;;;;;4.40;2.80;;;;;;;14.75;64.31;98842.41;221083;1273;22544;-71
2022/09/07 07:28:49;;;;;;;6.90;3.70;;;;;;;14.95;64.20;98842.13;220513;1274;25433;-72
2022/09/07 07:34:07;;;;;;;8.10;3.60;;;;;;;15.12;63.79;98842.02;213247;1273;2003034;-72
2022/09/07 07:39:16;;;;;;;5.40;3.70;;;;;;;15.28;63.76;98847.68;183342;1273;2018432;-71
2022/09/07 07:44:49;;;;;;;10.20;3.80;;;;;;;15.50;63.51;98853.64;220980;1273;22560;-71
2022/09/07 07:50:11;;;;;;;5.80;3.20;;;;;;;15.68;63.40;98854.79;220762;1273;22611;-71
2022/09/07 07:55:55;;;;;;;9.00;3.20;;;;;;;15.93;63.45;98851.95;220508;1273;24234;-72
2022/09/07 08:01:08;;;;;;;9.50;4.10;;;;;;;16.10;63.25;98850.96;220381;1274;22556;-72
2022/09/07 08:06:33;;;;;;;9.20;3.90;;;;;;;16.32;63.11;98850.23;220489;1273;1002774;-72
2022/09/07 08:12:05;;;;;;;5.60;3.40;;;;;;;16.60;62.99;98853.03;219095;1273;1015946;-72
2022/09/07 08:17:16;;;;;;;7.00;3.30;;;;;;;16.84;62.83;98848.17;220765;1273;22620;-72
2022/09/07 08:22:24;;;;;;;8.40;4.10;;;;;;;17.10;62.47;98849.48;197970;1275;1015561;-72
2022/09/07 08:27:29;;;;;;;5.10;3.50;;;;;;;17.27;62.19;98848.25;217240;1273;1015575;-75
2022/09/07 08:32:48;;;;;;;6.90;4.10;;;;;;;17.48;62.18;98846.27;220634;1273;22595;-71
2022/09/07 08:38:41;;;;;;;6.60;3.80;;;;;;;17.75;62.04;98844.29;220832;1273;22565;-72
2022/09/07 08:43:57;;;;;;;11.90;4.50;;;;;;;17.97;61.51;98840.48;220423;1274;25168;-72
2022/09/07 08:49:12;;;;;;;8.00;4.10;;;;;;;18.16;61.51;98832.91;220486;1274;24277;-73
2022/09/07 08:54:18;;;;;;;6.20;4.00;;;;;;;18.44;61.21;98829.59;220878;1273;26515;-72
2022/09/07 09:00:03;;;;;;;8.10;4.90;;;;;;;18.62;60.75;98828.99;220470;1276;22717;-72
2022/09/07 09:06:08;;;;;;;5.00;3.30;;;;;;;18.84;60.51;98830.60;220601;1273;22739;-71
2022/09/07 09:11:25;;;;;;;9.40;4.20;;;;;;;19.05;60.65;98834.42;220884;1273;24432;-73
2022/09/07 09:16:45;;;;;;;10.20;4.30;;;;;;;19.27;60.23;98827.43;220711;1273;22556;-72
2022/09/07 09:22:02;;;;;;;12.30;4.30;;;;;;;19.47;60.33;98830.11;218639;1273;1005239;-71
2022/09/07 09:27:04;;;;;;;7.80;4.80;;;;;;;19.74;60.20;98830.02;220282;1274;24279;-72
2022/09/07 09:32:49;;;;;;;5.70;4.00;;;;;;;19.88;59.77;98830.96;220751;1273;25142;-71
2022/09/07 09:38:02;;;;;;;8.60;4.40;;;;;;;20.08;59.84;98825.46;215718;1281;1003536;-73
2022/09/07 09:43:16;;;;;;;7.20;4.80;;;;;;;20.25;59.47;98815.93;219511;1275;1003844;-71
2022/09/07 09:48:43;;;;;;;9.60;4.20;;;;;;;20.41;59.38;98817.80;216507;1273;1003904;-71
2022/09/07 09:54:04;;;;;;;6.50;4.50;;;;;;;20.57;59.17;98819.70;218365;1273;1015550;-72
2022/09/07 09:59:30;;;;;;;7.30;4.60;;;;;;;20.71;58.78;98803.11;207308;1274;1015452;-71
2022/09/07 10:04:55;;;;;;;11.20;4.80;;;;;;;20.89;58.78;98801.33;167813;1273;1015872;-73
2022/09/07 10:10:00;;;;;;;11.80;5.60;;;;;;;21.11;58.71;98796.92;119593;1275;1016549;-72
2022/09/07 10:15:30;;;;;;;10.40;5.20;;;;;;;21.28;58.26;98796.48;194704;1273;1015793;-71
2022/09/07 10:20:41;;;;;;;8.20;5.10;;;;;;;21.42;58.13;98791.23;220590;1273;22710;-71
2022/09/07 10:25:58;;;;;;;7.60;5.30;;;;;;;21.50;57.74;98797.00;217584;1273;1004070;-71
2022/09/07 10:31:30;;;;;;;5.50;4.90;;;;;;;21.52;57.51;98792.89;216045;1274;1005137;-72
2022/09/07 10:36:45;;;;;;;6.20;3.90;;;;;;;21.63;57.67;98790.55;191108;1273;1003937;-74
2022/09/07 10:42:09;;;;;;;7.20;5.40;;;;;;;21.79;57.30;98796.76;220660;1273;22633;-73
2022/09/07 10:47:54;;;;;;;7.20;5.00;;;;;;;21.91;57.02;98790.09;220795;1273;22571;-72
2022/09/07 10:54:14;;;;;;;8.20;5.40;;;;;;;22.06;56.98;98782.77;213163;1275;1005700;-73
2022/09/07 10:59:55;;;;;;;5.50;4.80;;;;;;;22.23;56.75;98782.27;208633;1276;1005680;-72
2022/09/07 11:06:01;;;;;;;7.90;5.10;;;;;;;22.42;56.46;98781.88;220838;1273;22556;-72
2022/09/07 11:11:35;;;;;;;12.60;7.40;;;;;;;22.58;56.31;98774.85;217715;1275;1016370;-73
2022/09/07 11:17:02;;;;;;;5.60;5.00;;;;;;;22.84;56.16;98780.12;218573;1273;1003624;-72
2022/09/07 11:22:26;;;;;;;6.80;5.30;;;;;;;22.97;55.52;98779.02;197859;1274;1015439;-73
2022/09/07 11:27:41;;;;;;;6.50;4.90;;;;;;;23.10;55.15;98772.48;220016;1274;1003254;-73
2022/09/07 11:33:28;;;;;;;6.50;5.10;;;;;;;23.24;54.83;98777.89;220995;1274;22538;-72
2022/09/07 11:38:47;;;;;;;8.80;5.30;;;;;;;23.35;54.62;98765.44;219512;1273;1002571;-72
2022/09/07 11:44:12;;;;;;;6.90;5.30;;;;;;;23.57;54.84;98758.64;219784;1273;1015772;-72
2022/09/07 11:49:29;;;;;;;8.30;6.70;;;;;;;23.68;53.92;98757.02;209695;1274;1005394;-72
2022/09/07 11:54:50;;;;;;;10.80;5.00;;;;;;;23.70;53.43;98749.45;146331;1274;1015830;-72
2022/09/07 12:00:29;;;;;;;5.30;4.80;;;;;;;23.83;53.21;98748.61;215239;1274;1003814;-72
2022/09/07 12:05:53;;;;;;;12.00;6.10;;;;;;;23.93;52.63;98750.29;144435;1274;1016376;-72
2022/09/07 12:12:00;;;;;;;6.80;5.10;;;;;;;24.01;52.88;98743.72;132145;1275;1016456;-73
2022/09/07 12:17:45;;;;;;;6.00;5.40;;;;;;;24.19;52.45;98736.19;207845;1274;1015789;-72
2022/09/07 12:23:00;;;;;;;6.50;4.90;;;;;;;24.27;52.07;98730.45;220327;1274;25423;-72
2022/09/07 12:28:18;;;;;;;6.10;4.90;;;;;;;24.31;51.57;98727.50;220637;1274;23800;-73
2022/09/07 12:33:36;;;;;;;7.50;5.50;;;;;;;24.27;51.53;98724.58;219779;1274;1003120;-73
2022/09/07 12:39:17;;;;;;;6.10;4.60;;;;;;;24.32;51.19;98725.55;220428;1274;25276;-73
2022/09/07 12:44:25;;;;;;;8.50;7.40;;;;;;;24.33;51.23;98715.62;220444;1274;23808;-72
2022/09/07 12:50:05;;;;;;;7.20;5.10;;;;;;;24.43;51.44;98714.89;220558;1274;22595;-72
2022/09/07 12:55:45;;;;;;;9.10;5.30;;;;;;;24.54;51.05;98708.22;220070;1274;1002345;-72
2022/09/07 13:01:44;;;;;;;7.40;5.50;;;;;;;24.70;50.91;98708.17;220944;1274;23455;-72
2022/09/07 13:07:15;;;;;;;7.10;5.00;;;;;;;24.75;50.59;98702.63;208209;1274;1014950;-72
2022/09/07 13:12:46;;;;;;;10.10;5.70;;;;;;;24.74;50.27;98703.35;220032;1274;1003310;-73
2022/09/07 13:18:43;;;;;;;6.50;5.30;;;;;;;24.75;50.18;98702.48;220779;1274;24274;-73
2022/09/07 13:24:43;;;;;;;8.40;5.90;;;;;;;24.76;49.91;98704.52;220612;1274;22532;-72
2022/09/07 13:30:12;;;;;;;6.80;4.70;;;;;;;24.86;50.23;98698.60;219819;1274;1002381;-72
2022/09/07 13:35:23;;;;;;;5.70;5.10;;;;;;;24.99;50.06;98695.11;220791;1273;23838;-74
2022/09/07 13:40:44;;;;;;;9.80;5.80;;;;;;;24.95;49.68;98692.13;220525;1273;25667;-74
2022/09/07 13:46:00;;;;;;;6.50;5.40;;;;;;;24.85;49.74;98696.33;216009;1274;4490603;-71
2022/09/07 13:51:45;;;;;;;6.60;5.90;;;;;;;24.83;49.91;98686.46;219405;1273;1002491;-72
2022/09/07 13:57:27;;;;;;;7.70;5.60;;;;;;;24.87;49.82;98674.35;220587;1274;25373;-72
2022/09/07 14:02:42;;;;;;;6.00;5.40;;;;;;;24.99;50.44;98668.04;218157;1274;1003074;-73
2022/09/07 14:08:08;;;;;;;6.60;5.40;;;;;;;25.10;50.37;98662.17;219793;1273;1002128;-72
2022/09/07 14:13:29;;;;;;;7.00;5.90;;;;;;;25.19;50.32;98657.48;219723;1273;1002298;-73
2022/09/07 14:18:46;;;;;;;6.80;5.60;;;;;;;25.20;49.99;98651.00;220489;1273;22679;-72
2022/09/07 14:24:02;;;;;;;10.00;5.20;;;;;;;25.20;49.64;98643.88;220588;1274;24306;-72
2022/09/07 14:29:31;;;;;;;12.20;5.80;;;;;;;25.17;49.53;98649.98;220594;1273;23890;-73
2022/09/07 14:35:27;;;;;;;8.70;5.10;;;;;;;25.14;49.63;98647.54;220283;1274;22625;-72
2022/09/07 14:40:29;;;;;;;8.20;6.10;;;;;;;25.08;49.14;98642.67;219051;1273;1003513;-71
2022/09/07 14:45:33;;;;;;;5.20;4.70;;;;;;;24.97;49.34;98637.26;220485;1273;22547;-72
2022/09/07 14:50:39;;;;;;;8.50;5.30;;;;;;;24.92;49.46;98636.78;218381;1273;1003902;-71
2022/09/07 14:56:09;;;;;;;7.00;5.30;;;;;;;24.91;49.81;98638.82;220422;1274;23331;-71
2022/09/07 15:01:19;;;;;;;8.40;5.30;;;;;;;24.98;50.31;98636.02;220519;1273;25414;-72
2022/09/07 15:06:52;;;;;;;7.00;5.60;;;;;;;24.99;49.85;98631.40;220484;1274;24231;-72
2022/09/07 15:12:16;;;;;;;;;;;;;;;25.00;49.93;98630.84;220643;1274;22696;-71
2022/09/07 15:17:39;;;;;;;7.00;5.60;;;;;;;25.00;49.94;98627.70;220466;1274;24056;-72
2022/09/07 15:22:48;;;;;;;8.40;5.50;;;;;;;24.98;49.89;98627.79;220502;1273;22655;-72
2022/09/07 15:27:57;;;;;;;6.00;5.20;;;;;;;24.98;49.92;98622.54;219106;1273;1003115;-72
2022/09/07 15:33:07;;;;;;;6.50;5.40;;;;;;;24.96;50.04;98612.98;220372;1273;24440;-71
2022/09/07 15:38:30;;;;;;;6.20;5.60;;;;;;;24.90;50.25;98613.53;220568;1273;22802;-71
2022/09/07 15:43:56;;;;;;;5.90;5.20;;;;;;;24.87;50.27;98613.61;220472;1273;22556;-72
2022/09/07 15:49:10;;;;;;;9.90;6.40;;;;;;;24.83;50.15;98600.14;220150;1273;25453;-73
2022/09/07 15:54:33;;;;;;;8.50;5.90;;;;;;;24.72;50.42;98587.98;220378;1274;23089;-71
2022/09/07 15:59:43;;;;;;;5.80;5.10;;;;;;;24.58;50.43;98589.01;220347;1274;22833;-72
2022/09/07 16:04:57;;;;;;;6.10;5.50;;;;;;;24.45;50.70;98591.56;216766;1273;1016428;-71
2022/09/07 16:10:25;;;;;;;6.70;5.20;;;;;;;24.28;50.87;98592.75;220278;1273;22595;-71
2022/09/07 16:16:13;;;;;;;21.30;16.70;;;;;;;24.09;51.13;98586.88;220480;1273;22554;-71
2022/09/07 16:21:40;;;;;;;8.80;6.40;;;;;;;23.92;52.01;98587.80;220388;1273;22692;-71
2022/09/07 16:27:06;;;;;;;7.50;5.50;;;;;;;23.78;52.12;98589.95;220384;1274;25365;-72
2022/09/07 16:32:22;;;;;;;7.20;6.00;;;;;;;23.57;52.22;98591.48;220448;1273;22559;-72
2022/09/07 16:37:53;;;;;;;8.60;5.20;;;;;;;23.33;52.72;98588.40;220560;1273;22624;-71
2022/09/07 16:43:55;;;;;;;10.90;5.40;;;;;;;23.09;53.23;98588.89;220762;1273;22567;-72
2022/09/07 16:49:32;;;;;;;10.10;4.90;;;;;;;22.81;54.05;98597.98;220398;1273;24259;-72
2022/09/07 16:55:04;;;;;;;7.90;5.30;;;;;;;22.54;54.70;98597.45;220723;1273;25374;-72
2022/09/07 17:00:26;;;;;;;8.60;4.90;;;;;;;22.28;55.09;98596.82;220443;1274;24250;-71
2022/09/07 17:06:02;;;;;;;7.90;5.00;;;;;;;22.04;55.76;98604.46;220293;1274;25319;-71
2022/09/07 17:11:50;;;;;;;7.80;5.40;;;;;;;21.78;56.53;98609.23;220764;1273;24285;-72
2022/09/07 17:17:54;;;;;;;;;;;;;;;;;;;;;
2022/09/07 17:23:04;;;;;;;8.70;5.20;;;;;;;21.37;58.11;98611.08;220438;1272;22537;-73
2022/09/07 17:28:30;;;;;;;10.20;5.80;;;;;;;21.21;58.36;98606.39;220402;1273;25066;-72
2022/09/07 17:34:30;;;;;;;8.40;5.40;;;;;;;21.06;58.99;98581.39;220663;1273;22556;-72
2022/09/07 17:40:13;;;;;;;9.30;5.60;;;;;;;20.87;59.16;98572.05;187127;1273;1016723;-72
2022/09/07 17:46:03;;;;;;;8.70;6.50;;;;;;;20.66;59.84;98577.41;123174;1274;1017350;-72
2022/09/07 17:51:11;;;;;;;11.00;6.90;;;;;;;20.47;60.38;98582.86;220238;1274;25262;-72
2022/09/07 17:56:34;;;;;;;13.10;7.70;;;;;;;20.30;60.65;98591.23;220423;1273;22605;-72
2022/09/07 18:02:25;;;;;;;16.30;8.80;;;;;;;20.13;61.23;98596.16;220602;1273;24276;-72
2022/09/07 18:07:46;;;;;;;11.50;7.20;;;;;;;19.93;61.51;98596.60;220460;1273;24262;-72
2022/09/07 18:13:31;;;;;;;10.30;7.70;;;;;;;19.77;62.26;98598.34;220747;1273;22555;-72
2022/09/07 18:19:21;;;;;;;;;;;;;;;;;;;;;
2022/09/07 18:31:54;;;;;;;10.20;7.30;;;;;;;19.29;63.15;98582.92;220235;1274;24121;-72
2022/09/07 18:36:57;;;;;;;12.10;7.10;;;;;;;19.16;63.41;98578.27;220509;1273;25365;-71
2022/09/07 18:42:22;;;;;;;10.80;6.40;;;;;;;19.06;63.57;98586.70;220415;1273;22550;-71
2022/09/07 18:48:14;;;;;;;9.30;6.00;;;;;;;18.90;63.88;98579.31;220649;1273;23768;-72
2022/09/07 18:54:10;;;;;;;11.80;6.50;;;;;;;18.75;64.45;98584.48;220435;1273;22582;-70
2022/09/07 18:59:29;;;;;;;13.70;7.10;;;;;;;18.62;64.60;98583.30;220452;1273;25321;-71
2022/09/07 19:04:50;;;;;;;10.30;6.00;;;;;;;18.51;64.85;98582.86;220686;1273;25360;-72
2022/09/07 19:10:54;;;;;;;10.20;6.50;;;;;;;18.41;64.98;98583.80;220545;1273;23113;-72
2022/09/07 19:16:23;;;;;;;12.50;6.30;;;;;;;18.27;65.09;98584.05;220519;1273;24327;-72
2022/09/07 19:21:53;;;;;;;9.10;6.00;;;;;;;18.15;65.24;98590.19;220472;1273;22583;-71
2022/09/07 19:27:15;;;;;;;9.20;6.60;;;;;;;18.02;65.34;98597.11;220583;1273;24285;-73
2022/09/07 19:32:50;;;;;;;8.30;6.10;;;;;;;17.87;65.84;98585.67;220328;1274;22575;-71
2022/09/07 19:38:13;;;;;;;10.20;6.40;;;;;;;17.74;66.22;98590.28;220521;1273;22898;-72
2022/09/07 19:43:15;;;;;;;10.00;6.50;;;;;;;17.64;66.40;98599.27;143312;1273;1006078;-72
2022/09/07 19:48:30;;;;;;;10.80;6.80;;;;;;;17.53;66.66;98589.73;109947;1273;1017153;-72
2022/09/07 19:54:13;;;;;;;10.30;6.80;;;;;;;17.41;67.07;98588.04;109900;1274;1016615;-71
2022/09/07 19:59:59;;;;;;;8.60;5.50;;;;;;;17.31;67.70;98578.90;109954;1274;1017177;-70
2022/09/07 20:06:31;;;;;;;8.40;5.80;;;;;;;17.25;67.97;98572.98;109910;1273;1016621;-72
2022/09/07 20:12:02;;;;;;;;;;;;;;;;;;;;;
2022/09/07 20:17:27;;;;;;;9.70;5.50;;;;;;;17.14;68.16;98574.58;110046;1273;1016463;-72
2022/09/07 20:22:57;;;;;;;8.70;5.60;;;;;;;17.15;68.19;98577.30;110095;1274;1019419;-72
2022/09/07 20:28:17;;;;;;;8.30;5.20;;;;;;;17.16;68.15;98578.73;109854;1273;1019077;-71
2022/09/07 20:33:39;;;;;;;8.10;5.40;;;;;;;17.14;68.05;98572.70;194150;1273;1016329;-72
2022/09/07 20:39:01;;;;;;;11.20;5.80;;;;;;;17.11;67.87;98571.38;114464;1273;1005864;-71
2022/09/07 20:45:05;;;;;;;7.20;4.20;;;;;;;17.01;67.94;98568.20;110098;1273;1016487;-71
2022/09/07 20:50:41;;;;;;;;;;;;;;;;;;;;;
2022/09/07 20:56:17;;;;;;;9.60;5.40;;;;;;;16.89;67.93;98566.48;109861;1274;1019289;-71
2022/09/07 21:01:27;;;;;;;9.50;5.00;;;;;;;16.83;67.92;98574.77;110102;1273;1018973;-72
2022/09/07 21:06:46;;;;;;;8.60;5.30;;;;;;;16.80;67.92;98572.72;110054;1273;1016722;-71
2022/09/07 21:12:54;;;;;;;;;;;;;;;;;;;;;
2022/09/07 21:18:38;;;;;;;5.00;4.10;;;;;;;16.77;67.61;98557.23;109898;1273;1017489;-71
2022/09/07 21:23:53;;;;;;;6.20;4.50;;;;;;;16.74;67.53;98551.51;110164;1274;1016612;-71
2022/09/07 21:29:33;;;;;;;7.20;4.00;;;;;;;16.72;67.45;98551.37;110142;1273;1017190;-71
2022/09/07 21:35:18;;;;;;;9.50;4.80;;;;;;;16.71;67.35;98556.73;110131;1273;1016505;-71
2022/09/07 21:41:12;;;;;;;9.00;4.30;;;;;;;16.70;67.20;98554.22;110034;1273;1016212;-71
2022/09/07 21:46:41;;;;;;;6.50;4.50;;;;;;;16.66;67.05;98551.99;109774;1275;1016694;-72
2022/09/07 21:52:01;;;;;;;8.20;5.10;;;;;;;16.59;67.00;98548.67;110064;1273;1016437;-71
2022/09/07 21:57:51;;;;;;;10.30;5.10;;;;;;;16.48;67.00;98548.74;110131;1273;1016311;-71
2022/09/07 22:03:04;;;;;;;11.00;5.30;;;;;;;16.34;67.18;98547.58;110169;1273;1019992;-71
2022/09/07 22:08:25;;;;;;;8.90;5.50;;;;;;;16.22;67.35;98544.84;110064;1273;1016592;-71
2022/09/07 22:14:46;;;;;;;9.10;4.40;;;;;;;16.09;67.68;98557.02;110063;1273;1016744;-71
2022/09/07 22:20:38;;;;;;;;;;;;;;;;;;;;;
2022/09/07 22:33:49;;;;;;;7.40;4.00;;;;;;;15.75;68.49;98543.83;110129;1273;1016438;-71
2022/09/07 22:40:17;;;;;;;15.10;8.50;;;;;;;15.68;68.62;98532.71;110082;1273;1018535;-71
2022/09/07 22:46:23;;;;;;;8.40;5.20;;;;;;;15.62;68.75;98531.31;110119;1273;1016350;-71
2022/09/07 22:52:29;;;;;;;7.20;4.90;;;;;;;15.55;68.84;98528.67;110138;1273;1015970;-71
2022/09/07 22:58:18;;;;;;;5.50;4.50;;;;;;;15.48;68.91;98520.53;110160;1273;1016152;-71
2022/09/07 23:04:20;;;;;;;9.10;5.00;;;;;;;15.39;69.18;98518.74;110115;1273;1016203;-71
2022/09/07 23:11:01;;;;;;;8.40;4.70;;;;;;;15.28;69.27;98517.77;110053;1273;1016586;-72
2022/09/07 23:17:41;;;;;;;6.50;5.10;;;;;;;15.19;69.54;98510.94;110169;1273;1016501;-70
2022/09/07 23:23:30;;;;;;;10.50;5.50;;;;;;;15.09;69.65;98506.39;110084;1273;1016603;-71
2022/09/07 23:35:09;;;;;;;7.60;5.40;;;;;;;14.94;70.02;98495.69;110169;1273;1016653;-71
2022/09/07 23:40:50;;;;;;;9.70;5.40;;;;;;;14.83;70.13;98484.98;109962;1273;1016606;-70
2022/09/07 23:46:33;;;;;;;10.00;5.70;;;;;;;14.75;70.35;98493.52;110174;1273;1017212;-71
2022/09/07 23:52:28;;;;;;;10.70;6.20;;;;;;;14.64;70.52;98491.92;110098;1273;1018620;-71
2022/09/07 23:58:13;;;;;;;8.90;4.90;;;;;;;14.57;70.81;98487.52;110162;1273;1016531;-71
